sensor_id;sensor_type;location;lat;lon;timestamp;pressure;altitude;pressure_sealevel;temperature;humidity
43217;BME280;60511;42.686;23.300;2022-07-23T00:00:51;95007.06;;;29.66;28.77
43217;BME280;60511;42.686;23.300;2022-07-23T00:02:52;95012.91;;;29.64;28.86
43217;BME280;60511;42.686;23.300;2022-07-23T00:04:52;95013.28;;;29.67;28.68
43217;BME280;60511;42.686;23.300;2022-07-23T00:06:52;95015.25;;;29.66;28.85
43217;BME280;60511;42.686;23.300;2022-07-23T00:08:53;95018.34;;;29.64;29.03
43217;BME280;60511;42.686;23.300;2022-07-23T00:10:53;95019.94;;;29.65;28.71
43217;BME280;60511;42.686;23.300;2022-07-23T00:12:53;95018.75;;;29.67;28.91
43217;BME280;60511;42.686;23.300;2022-07-23T00:14:54;95017.56;;;29.64;29.30
43217;BME280;60511;42.686;23.300;2022-07-23T00:16:54;95019.53;;;29.63;29.01
43217;BME280;60511;42.686;23.300;2022-07-23T00:18:54;95016.81;;;29.63;28.87
43217;BME280;60511;42.686;23.300;2022-07-23T00:20:54;95021.47;;;29.63;28.72
43217;BME280;60511;42.686;23.300;2022-07-23T00:22:55;95019.53;;;29.63;29.05
43217;BME280;60511;42.686;23.300;2022-07-23T00:24:56;95021.09;;;29.61;28.87
43217;BME280;60511;42.686;23.300;2022-07-23T00:26:56;95023.41;;;29.62;28.99
43217;BME280;60511;42.686;23.300;2022-07-23T00:28:56;95023.41;;;29.59;28.77
43217;BME280;60511;42.686;23.300;2022-07-23T00:30:57;95019.91;;;29.62;28.64
43217;BME280;60511;42.686;23.300;2022-07-23T00:32:58;95024.19;;;29.59;28.71
43217;BME280;60511;42.686;23.300;2022-07-23T00:34:59;95026.13;;;29.62;28.66
43217;BME280;60511;42.686;23.300;2022-07-23T00:36:59;95027.72;;;29.63;28.84
43217;BME280;60511;42.686;23.300;2022-07-23T00:38:59;95026.94;;;29.63;28.72
43217;BME280;60511;42.686;23.300;2022-07-23T00:41:00;95026.13;;;29.62;28.68
43217;BME280;60511;42.686;23.300;2022-07-23T00:43:00;95025.38;;;29.62;28.86
43217;BME280;60511;42.686;23.300;2022-07-23T00:45:00;95027.31;;;29.61;28.73
43217;BME280;60511;42.686;23.300;2022-07-23T00:47:01;95019.50;;;29.60;29.04
43217;BME280;60511;42.686;23.300;2022-07-23T00:49:01;95027.31;;;29.61;28.64
43217;BME280;60511;42.686;23.300;2022-07-23T00:51:01;95026.53;;;29.61;28.85
43217;BME280;60511;42.686;23.300;2022-07-23T00:53:02;95025.75;;;29.60;28.89
43217;BME280;60511;42.686;23.300;2022-07-23T00:55:04;95029.28;;;29.61;29.14
43217;BME280;60511;42.686;23.300;2022-07-23T00:57:05;95031.59;;;29.62;29.05
43217;BME280;60511;42.686;23.300;2022-07-23T00:59:05;95028.88;;;29.59;28.84
43217;BME280;60511;42.686;23.300;2022-07-23T01:01:06;95024.94;;;29.56;28.71
43217;BME280;60511;42.686;23.300;2022-07-23T01:03:08;95023.41;;;29.59;28.94
43217;BME280;60511;42.686;23.300;2022-07-23T01:05:08;95023.03;;;29.57;29.06
43217;BME280;60511;42.686;23.300;2022-07-23T01:07:09;95021.06;;;29.57;28.83
43217;BME280;60511;42.686;23.300;2022-07-23T01:09:09;95017.56;;;29.57;29.33
43217;BME280;60511;42.686;23.300;2022-07-23T01:11:09;95021.06;;;29.57;29.24
43217;BME280;60511;42.686;23.300;2022-07-23T01:13:10;95022.63;;;29.55;29.16
43217;BME280;60511;42.686;23.300;2022-07-23T01:15:10;95023.41;;;29.59;28.84
43217;BME280;60511;42.686;23.300;2022-07-23T01:17:12;95026.91;;;29.59;29.00
43217;BME280;60511;42.686;23.300;2022-07-23T01:19:13;95021.84;;;29.58;29.16
43217;BME280;60511;42.686;23.300;2022-07-23T01:21:15;95024.16;;;29.56;28.94
43217;BME280;60511;42.686;23.300;2022-07-23T01:23:17;95016.00;;;29.56;29.01
43217;BME280;60511;42.686;23.300;2022-07-23T01:25:19;95020.69;;;29.59;29.22
43217;BME280;60511;42.686;23.300;2022-07-23T01:27:19;95014.44;;;29.58;29.14
43217;BME280;60511;42.686;23.300;2022-07-23T01:29:20;95018.34;;;29.57;28.95
43217;BME280;60511;42.686;23.300;2022-07-23T01:31:21;95020.28;;;29.53;29.07
43217;BME280;60511;42.686;23.300;2022-07-23T01:33:21;95014.81;;;29.53;28.86
43217;BME280;60511;42.686;23.300;2022-07-23T01:35:21;95014.41;;;29.51;29.25
43217;BME280;60511;42.686;23.300;2022-07-23T01:37:22;95011.31;;;29.56;28.81
43217;BME280;60511;42.686;23.300;2022-07-23T01:39:22;95014.44;;;29.55;29.16
43217;BME280;60511;42.686;23.300;2022-07-23T01:41:28;95010.53;;;29.56;29.02
43217;BME280;60511;42.686;23.300;2022-07-23T01:43:28;95017.94;;;29.55;29.17
43217;BME280;60511;42.686;23.300;2022-07-23T01:45:28;95011.69;;;29.58;29.18
43217;BME280;60511;42.686;23.300;2022-07-23T01:47:29;95013.66;;;29.58;28.88
43217;BME280;60511;42.686;23.300;2022-07-23T01:49:29;95014.81;;;29.53;29.07
43217;BME280;60511;42.686;23.300;2022-07-23T01:51:29;95008.19;;;29.54;29.08
43217;BME280;60511;42.686;23.300;2022-07-23T01:53:29;95012.47;;;29.55;29.21
43217;BME280;60511;42.686;23.300;2022-07-23T01:55:32;95007.41;;;29.54;29.16
43217;BME280;60511;42.686;23.300;2022-07-23T01:57:32;95017.53;;;29.53;28.91
43217;BME280;60511;42.686;23.300;2022-07-23T01:59:33;95010.13;;;29.50;28.80
43217;BME280;60511;42.686;23.300;2022-07-23T02:01:33;95011.72;;;29.55;28.85
43217;BME280;60511;42.686;23.300;2022-07-23T02:03:34;95017.91;;;29.52;29.13
43217;BME280;60511;42.686;23.300;2022-07-23T02:05:34;95010.91;;;29.51;28.76
43217;BME280;60511;42.686;23.300;2022-07-23T02:07:34;95015.19;;;29.52;29.08
43217;BME280;60511;42.686;23.300;2022-07-23T02:09:34;95017.16;;;29.51;28.74
43217;BME280;60511;42.686;23.300;2022-07-23T02:11:36;95011.31;;;29.53;28.65
43217;BME280;60511;42.686;23.300;2022-07-23T02:13:36;95016.38;;;29.51;29.11
43217;BME280;60511;42.686;23.300;2022-07-23T02:15:37;95012.84;;;29.50;28.89
43217;BME280;60511;42.686;23.300;2022-07-23T02:17:37;95014.78;;;29.50;29.22
43217;BME280;60511;42.686;23.300;2022-07-23T02:19:38;95010.50;;;29.49;29.16
43217;BME280;60511;42.686;23.300;2022-07-23T02:21:38;95017.16;;;29.51;28.80
43217;BME280;60511;42.686;23.300;2022-07-23T02:23:38;95014.03;;;29.49;28.98
43217;BME280;60511;42.686;23.300;2022-07-23T02:25:38;95017.13;;;29.48;29.09
43217;BME280;60511;42.686;23.300;2022-07-23T02:27:39;95014.41;;;29.48;28.87
43217;BME280;60511;42.686;23.300;2022-07-23T02:29:39;95014.41;;;29.48;28.77
43217;BME280;60511;42.686;23.300;2022-07-23T02:31:39;95015.16;;;29.48;28.86
43217;BME280;60511;42.686;23.300;2022-07-23T02:33:40;95019.47;;;29.49;28.96
43217;BME280;60511;42.686;23.300;2022-07-23T02:35:40;95009.72;;;29.48;29.21
43217;BME280;60511;42.686;23.300;2022-07-23T02:37:40;95014.38;;;29.44;29.03
43217;BME280;60511;42.686;23.300;2022-07-23T02:39:40;95019.44;;;29.45;29.00
43217;BME280;60511;42.686;23.300;2022-07-23T02:41:41;95018.28;;;29.50;28.87
43217;BME280;60511;42.686;23.300;2022-07-23T02:43:41;95020.63;;;29.48;28.86
43217;BME280;60511;42.686;23.300;2022-07-23T02:45:41;95019.84;;;29.48;28.77
43217;BME280;60511;42.686;23.300;2022-07-23T02:47:42;95016.34;;;29.47;28.84
43217;BME280;60511;42.686;23.300;2022-07-23T02:49:42;95022.56;;;29.48;28.83
43217;BME280;60511;42.686;23.300;2022-07-23T02:51:42;95022.56;;;29.48;28.77
43217;BME280;60511;42.686;23.300;2022-07-23T02:53:42;95024.53;;;29.47;28.74
43217;BME280;60511;42.686;23.300;2022-07-23T02:55:43;95030.34;;;29.45;28.86
43217;BME280;60511;42.686;23.300;2022-07-23T02:57:44;95029.22;;;29.47;28.94
43217;BME280;60511;42.686;23.300;2022-07-23T02:59:44;95030.34;;;29.42;29.05
43217;BME280;60511;42.686;23.300;2022-07-23T03:01:44;95029.97;;;29.43;29.01
43217;BME280;60511;42.686;23.300;2022-07-23T03:03:45;95038.53;;;29.45;28.91
43217;BME280;60511;42.686;23.300;2022-07-23T03:05:46;95035.44;;;29.47;29.08
43217;BME280;60511;42.686;23.300;2022-07-23T03:07:46;95038.13;;;29.43;29.27
43217;BME280;60511;42.686;23.300;2022-07-23T03:09:47;95040.47;;;29.41;28.93
43217;BME280;60511;42.686;23.300;2022-07-23T03:11:47;95040.88;;;29.43;28.98
43217;BME280;60511;42.686;23.300;2022-07-23T03:13:47;95041.63;;;29.44;29.33
43217;BME280;60511;42.686;23.300;2022-07-23T03:15:47;95050.22;;;29.42;29.20
43217;BME280;60511;42.686;23.300;2022-07-23T03:17:48;95045.53;;;29.39;29.07
43217;BME280;60511;42.686;23.300;2022-07-23T03:19:48;95047.09;;;29.40;29.05
43217;BME280;60511;42.686;23.300;2022-07-23T03:21:48;95053.34;;;29.44;28.99
43217;BME280;60511;42.686;23.300;2022-07-23T03:23:48;95056.44;;;29.43;28.98
43217;BME280;60511;42.686;23.300;2022-07-23T03:25:49;95053.31;;;29.41;29.49
43217;BME280;60511;42.686;23.300;2022-07-23T03:27:49;95052.94;;;29.42;29.31
43217;BME280;60511;42.686;23.300;2022-07-23T03:29:50;95056.44;;;29.39;29.00
43217;BME280;60511;42.686;23.300;2022-07-23T03:31:50;95065.00;;;29.41;29.19
43217;BME280;60511;42.686;23.300;2022-07-23T03:33:51;95059.56;;;29.41;29.40
43217;BME280;60511;42.686;23.300;2022-07-23T03:35:51;95055.66;;;29.39;29.18
43217;BME280;60511;42.686;23.300;2022-07-23T03:37:51;95062.28;;;29.41;29.01
43217;BME280;60511;42.686;23.300;2022-07-23T03:39:51;95058.00;;;29.40;29.31
43217;BME280;60511;42.686;23.300;2022-07-23T03:41:52;95060.72;;;29.40;29.02
43217;BME280;60511;42.686;23.300;2022-07-23T03:43:52;95068.50;;;29.42;28.96
43217;BME280;60511;42.686;23.300;2022-07-23T03:45:53;95072.41;;;29.41;29.08
43217;BME280;60511;42.686;23.300;2022-07-23T03:47:54;95066.19;;;29.40;29.22
43217;BME280;60511;42.686;23.300;2022-07-23T03:49:54;95057.19;;;29.40;29.07
43217;BME280;60511;42.686;23.300;2022-07-23T03:51:55;95071.63;;;29.40;29.40
43217;BME280;60511;42.686;23.300;2022-07-23T03:53:55;95064.56;;;29.36;29.13
43217;BME280;60511;42.686;23.300;2022-07-23T03:55:56;95065.78;;;29.38;29.44
43217;BME280;60511;42.686;23.300;2022-07-23T03:57:56;95009.03;;;28.96;29.52
43217;BME280;60511;42.686;23.300;2022-07-23T03:59:56;95062.66;;;29.40;29.12
43217;BME280;60511;42.686;23.300;2022-07-23T04:01:56;95068.09;;;29.40;29.13
43217;BME280;60511;42.686;23.300;2022-07-23T04:03:57;95066.56;;;29.39;29.34
43217;BME280;60511;42.686;23.300;2022-07-23T04:05:57;95068.09;;;29.40;29.32
43217;BME280;60511;42.686;23.300;2022-07-23T04:07:57;95062.66;;;29.40;29.59
43217;BME280;60511;42.686;23.300;2022-07-23T04:09:57;95066.56;;;29.39;29.46
43217;BME280;60511;42.686;23.300;2022-07-23T04:11:58;95067.34;;;29.39;29.62
43217;BME280;60511;42.686;23.300;2022-07-23T04:13:58;95065.44;;;29.47;29.36
43217;BME280;60511;42.686;23.300;2022-07-23T04:15:58;95073.22;;;29.45;29.00
43217;BME280;60511;42.686;23.300;2022-07-23T04:17:58;95072.44;;;29.44;29.33
43217;BME280;60511;42.686;23.300;2022-07-23T04:19:59;95066.19;;;29.40;29.03
43217;BME280;60511;42.686;23.300;2022-07-23T04:21:59;95066.97;;;29.44;29.14
43217;BME280;60511;42.686;23.300;2022-07-23T04:23:59;95072.81;;;29.43;29.17
43217;BME280;60511;42.686;23.300;2022-07-23T04:26:00;95078.63;;;29.41;29.33
43217;BME280;60511;42.686;23.300;2022-07-23T04:28:00;95072.03;;;29.42;29.53
43217;BME280;60511;42.686;23.300;2022-07-23T04:30:00;95078.25;;;29.43;29.20
43217;BME280;60511;42.686;23.300;2022-07-23T04:32:01;95076.28;;;29.40;29.53
43217;BME280;60511;42.686;23.300;2022-07-23T04:34:01;95078.25;;;29.43;29.13
43217;BME280;60511;42.686;23.300;2022-07-23T04:36:01;95077.09;;;29.44;29.57
43217;BME280;60511;42.686;23.300;2022-07-23T04:38:02;95073.59;;;29.43;29.41
43217;BME280;60511;42.686;23.300;2022-07-23T04:40:03;95072.81;;;29.43;29.48
43217;BME280;60511;42.686;23.300;2022-07-23T04:42:03;95073.97;;;29.42;29.33
43217;BME280;60511;42.686;23.300;2022-07-23T04:44:03;95082.53;;;29.44;29.49
43217;BME280;60511;42.686;23.300;2022-07-23T04:46:04;95079.41;;;29.42;29.14
43217;BME280;60511;42.686;23.300;2022-07-23T04:48:04;95078.69;;;29.49;29.06
43217;BME280;60511;42.686;23.300;2022-07-23T04:50:05;95087.66;;;29.49;29.49
43217;BME280;60511;42.686;23.300;2022-07-23T04:52:05;95081.78;;;29.43;29.18
43217;BME280;60511;42.686;23.300;2022-07-23T04:54:05;95086.88;;;29.49;29.49
43217;BME280;60511;42.686;23.300;2022-07-23T04:56:06;95086.47;;;29.47;29.41
43217;BME280;60511;42.686;23.300;2022-07-23T04:58:06;95093.09;;;29.49;29.30
43217;BME280;60511;42.686;23.300;2022-07-23T05:00:06;95082.19;;;29.49;29.22
43217;BME280;60511;42.686;23.300;2022-07-23T05:02:07;95087.66;;;29.49;29.52
43217;BME280;60511;42.686;23.300;2022-07-23T05:04:07;95090.34;;;29.45;29.60
43217;BME280;60511;42.686;23.300;2022-07-23T05:06:07;95085.28;;;29.48;29.09
43217;BME280;60511;42.686;23.300;2022-07-23T05:08:09;95089.97;;;29.47;29.38
43217;BME280;60511;42.686;23.300;2022-07-23T05:10:09;95086.06;;;29.48;29.49
43217;BME280;60511;42.686;23.300;2022-07-23T05:12:10;95086.09;;;29.52;29.40
43217;BME280;60511;42.686;23.300;2022-07-23T05:14:10;95083.75;;;29.50;28.97
43217;BME280;60511;42.686;23.300;2022-07-23T05:16:12;95086.47;;;29.50;28.99
43217;BME280;60511;42.686;23.300;2022-07-23T05:18:12;95086.88;;;29.52;29.38
43217;BME280;60511;42.686;23.300;2022-07-23T05:20:13;95096.22;;;29.51;29.31
43217;BME280;60511;42.686;23.300;2022-07-23T05:22:13;95095.06;;;29.52;29.43
43217;BME280;60511;42.686;23.300;2022-07-23T05:24:13;95092.31;;;29.52;29.36
43217;BME280;60511;42.686;23.300;2022-07-23T05:26:14;95095.06;;;29.49;29.27
43217;BME280;60511;42.686;23.300;2022-07-23T05:28:14;95097.38;;;29.50;29.02
43217;BME280;60511;42.686;23.300;2022-07-23T05:30:14;95082.59;;;29.51;29.11
43217;BME280;60511;42.686;23.300;2022-07-23T05:32:14;95088.06;;;29.51;29.18
43217;BME280;60511;42.686;23.300;2022-07-23T05:34:15;95093.13;;;29.53;29.11
43217;BME280;60511;42.686;23.300;2022-07-23T05:36:15;95095.06;;;29.52;29.17
43217;BME280;60511;42.686;23.300;2022-07-23T05:38:15;95091.91;;;29.50;29.41
43217;BME280;60511;42.686;23.300;2022-07-23T05:40:15;95094.28;;;29.52;29.02
43217;BME280;60511;42.686;23.300;2022-07-23T05:42:16;95092.72;;;29.51;29.04
43217;BME280;60511;42.686;23.300;2022-07-23T05:44:16;95089.59;;;29.52;29.38
43217;BME280;60511;42.686;23.300;2022-07-23T05:46:16;95095.47;;;29.54;28.96
43217;BME280;60511;42.686;23.300;2022-07-23T05:48:17;95095.47;;;29.54;29.32
43217;BME280;60511;42.686;23.300;2022-07-23T05:50:17;95090.00;;;29.54;29.13
43217;BME280;60511;42.686;23.300;2022-07-23T05:52:17;95090.00;;;29.54;29.27
43217;BME280;60511;42.686;23.300;2022-07-23T05:54:18;95090.41;;;29.56;29.27
43217;BME280;60511;42.686;23.300;2022-07-23T05:56:19;95096.25;;;29.55;29.38
43217;BME280;60511;42.686;23.300;2022-07-23T05:58:19;95094.72;;;29.57;29.18
43217;BME280;60511;42.686;23.300;2022-07-23T06:00:19;95090.44;;;29.60;29.21
43217;BME280;60511;42.686;23.300;2022-07-23T06:02:20;95094.72;;;29.61;29.27
43217;BME280;60511;42.686;23.300;2022-07-23T06:04:20;95092.78;;;29.61;29.21
43217;BME280;60511;42.686;23.300;2022-07-23T06:06:20;95094.72;;;29.61;28.87
43217;BME280;60511;42.686;23.300;2022-07-23T06:08:20;95086.94;;;29.59;29.30
43217;BME280;60511;42.686;23.300;2022-07-23T06:10:21;95083.81;;;29.61;28.83
43217;BME280;60511;42.686;23.300;2022-07-23T06:12:21;95085.38;;;29.62;29.27
43217;BME280;60511;42.686;23.300;2022-07-23T06:14:22;95082.28;;;29.63;28.84
43217;BME280;60511;42.686;23.300;2022-07-23T06:16:24;95081.50;;;29.63;28.94
43217;BME280;60511;42.686;23.300;2022-07-23T06:18:24;95079.53;;;29.63;28.84
43217;BME280;60511;42.686;23.300;2022-07-23T06:20:26;95083.03;;;29.64;28.85
43217;BME280;60511;42.686;23.300;2022-07-23T06:22:27;95082.66;;;29.65;28.83
43217;BME280;60511;42.686;23.300;2022-07-23T06:24:27;95077.22;;;29.65;29.17
43217;BME280;60511;42.686;23.300;2022-07-23T06:26:28;95083.81;;;29.64;28.76
43217;BME280;60511;42.686;23.300;2022-07-23T06:28:28;95086.53;;;29.64;29.16
43217;BME280;60511;42.686;23.300;2022-07-23T06:30:28;95082.28;;;29.63;29.16
43217;BME280;60511;42.686;23.300;2022-07-23T06:32:28;95082.28;;;29.63;29.22
43217;BME280;60511;42.686;23.300;2022-07-23T06:34:29;95079.91;;;29.62;29.16
43217;BME280;60511;42.686;23.300;2022-07-23T06:36:29;95079.16;;;29.65;29.13
43217;BME280;60511;42.686;23.300;2022-07-23T06:38:29;95074.84;;;29.64;28.94
43217;BME280;60511;42.686;23.300;2022-07-23T06:40:29;95083.03;;;29.64;29.00
43217;BME280;60511;42.686;23.300;2022-07-23T06:42:31;95082.66;;;29.65;28.98
43217;BME280;60511;42.686;23.300;2022-07-23T06:44:31;95083.06;;;29.68;29.09
43217;BME280;60511;42.686;23.300;2022-07-23T06:46:32;95081.13;;;29.68;29.25
43217;BME280;60511;42.686;23.300;2022-07-23T06:48:32;95078.00;;;29.70;29.03
43217;BME280;60511;42.686;23.300;2022-07-23T06:50:34;95079.56;;;29.67;29.12
43217;BME280;60511;42.686;23.300;2022-07-23T06:52:35;95081.88;;;29.69;29.03
43217;BME280;60511;42.686;23.300;2022-07-23T06:54:35;95077.22;;;29.69;28.84
43217;BME280;60511;42.686;23.300;2022-07-23T06:56:36;95071.78;;;29.69;29.27
43217;BME280;60511;42.686;23.300;2022-07-23T06:58:37;95070.56;;;29.67;29.28
43217;BME280;60511;42.686;23.300;2022-07-23T07:00:38;95078.00;;;29.70;29.04
43217;BME280;60511;42.686;23.300;2022-07-23T07:02:40;95072.22;;;29.71;29.26
43217;BME280;60511;42.686;23.300;2022-07-23T07:04:40;95069.06;;;29.73;28.73
43217;BME280;60511;42.686;23.300;2022-07-23T07:06:40;95068.69;;;29.74;29.21
43217;BME280;60511;42.686;23.300;2022-07-23T07:08:41;95075.34;;;29.73;28.85
43217;BME280;60511;42.686;23.300;2022-07-23T07:10:43;95069.81;;;29.70;29.18
43217;BME280;60511;42.686;23.300;2022-07-23T07:12:43;95072.19;;;29.75;28.97
43217;BME280;60511;42.686;23.300;2022-07-23T07:14:43;95067.16;;;29.73;29.30
43217;BME280;60511;42.686;23.300;2022-07-23T07:16:43;95071.44;;;29.78;29.04
43217;BME280;60511;42.686;23.300;2022-07-23T07:18:44;95068.31;;;29.76;28.76
43217;BME280;60511;42.686;23.300;2022-07-23T07:20:44;95062.88;;;29.76;29.13
43217;BME280;60511;42.686;23.300;2022-07-23T07:22:44;95057.78;;;29.74;29.12
43217;BME280;60511;42.686;23.300;2022-07-23T07:24:45;95062.47;;;29.74;29.01
43217;BME280;60511;42.686;23.300;2022-07-23T07:26:45;95057.44;;;29.79;28.82
43217;BME280;60511;42.686;23.300;2022-07-23T07:28:45;95060.50;;;29.74;29.27
43217;BME280;60511;42.686;23.300;2022-07-23T07:30:45;95058.97;;;29.80;29.17
43217;BME280;60511;42.686;23.300;2022-07-23T07:32:46;95049.66;;;29.89;28.97
43217;BME280;60511;42.686;23.300;2022-07-23T07:34:46;95056.66;;;29.82;28.85
43217;BME280;60511;42.686;23.300;2022-07-23T07:36:46;95056.66;;;29.86;28.79
43217;BME280;60511;42.686;23.300;2022-07-23T07:38:47;95046.91;;;29.85;29.12
43217;BME280;60511;42.686;23.300;2022-07-23T07:40:47;95053.56;;;29.88;29.01
43217;BME280;60511;42.686;23.300;2022-07-23T07:42:48;95057.09;;;29.92;28.95
43217;BME280;60511;42.686;23.300;2022-07-23T07:44:48;95045.38;;;29.91;28.59
43217;BME280;60511;42.686;23.300;2022-07-23T07:46:48;95048.09;;;29.91;29.02
43217;BME280;60511;42.686;23.300;2022-07-23T07:48:48;95048.09;;;29.88;28.96
43217;BME280;60511;42.686;23.300;2022-07-23T07:50:49;95041.88;;;29.94;29.03
43217;BME280;60511;42.686;23.300;2022-07-23T07:52:49;95044.59;;;29.91;28.72
43217;BME280;60511;42.686;23.300;2022-07-23T07:54:49;95047.34;;;29.94;29.08
43217;BME280;60511;42.686;23.300;2022-07-23T07:56:50;95041.09;;;29.94;28.93
43217;BME280;60511;42.686;23.300;2022-07-23T07:58:51;95034.84;;;29.93;29.07
43217;BME280;60511;42.686;23.300;2022-07-23T08:00:51;95041.06;;;29.87;29.04
43217;BME280;60511;42.686;23.300;2022-07-23T08:02:52;95030.16;;;29.87;28.68
43217;BME280;60511;42.686;23.300;2022-07-23T08:04:52;95036.78;;;29.89;28.79
43217;BME280;60511;42.686;23.300;2022-07-23T08:06:53;95039.13;;;29.91;28.84
43217;BME280;60511;42.686;23.300;2022-07-23T08:08:53;95039.53;;;29.96;28.75
43217;BME280;60511;42.686;23.300;2022-07-23T08:10:53;95034.44;;;29.91;29.15
43217;BME280;60511;42.686;23.300;2022-07-23T08:12:55;95035.63;;;29.97;28.83
43217;BME280;60511;42.686;23.300;2022-07-23T08:14:56;95029.41;;;29.97;28.84
43217;BME280;60511;42.686;23.300;2022-07-23T08:16:56;95032.13;;;29.90;29.09
43217;BME280;60511;42.686;23.300;2022-07-23T08:18:57;95035.25;;;29.95;28.61
43217;BME280;60511;42.686;23.300;2022-07-23T08:20:57;95023.94;;;29.97;28.70
43217;BME280;60511;42.686;23.300;2022-07-23T08:22:58;95039.91;;;29.91;29.01
43217;BME280;60511;42.686;23.300;2022-07-23T08:24:59;95024.31;;;29.88;29.11
43217;BME280;60511;42.686;23.300;2022-07-23T08:26:59;95036.81;;;29.96;28.81
43217;BME280;60511;42.686;23.300;2022-07-23T08:28:59;95029.78;;;29.95;28.83
43217;BME280;60511;42.686;23.300;2022-07-23T08:30:59;95027.44;;;29.97;29.07
43217;BME280;60511;42.686;23.300;2022-07-23T08:33:01;95020.84;;;30.02;28.88
43217;BME280;60511;42.686;23.300;2022-07-23T08:35:03;95018.88;;;29.95;28.93
43217;BME280;60511;42.686;23.300;2022-07-23T08:37:03;95023.97;;;30.00;28.63
43217;BME280;60511;42.686;23.300;2022-07-23T08:39:04;95029.44;;;30.04;28.87
43217;BME280;60511;42.686;23.300;2022-07-23T08:41:05;95022.41;;;29.96;28.86
43217;BME280;60511;42.686;23.300;2022-07-23T08:43:08;95028.63;;;29.96;28.95
43217;BME280;60511;42.686;23.300;2022-07-23T08:45:08;95021.63;;;29.99;29.12
43217;BME280;60511;42.686;23.300;2022-07-23T08:47:10;95020.44;;;29.96;29.24
43217;BME280;60511;42.686;23.300;2022-07-23T08:49:11;95023.56;;;29.98;29.08
43217;BME280;60511;42.686;23.300;2022-07-23T08:51:12;95020.06;;;29.98;28.80
43217;BME280;60511;42.686;23.300;2022-07-23T08:53:12;95022.78;;;30.01;29.06
43217;BME280;60511;42.686;23.300;2022-07-23T08:55:14;95018.09;;;29.98;28.88
43217;BME280;60511;42.686;23.300;2022-07-23T08:57:16;95010.34;;;30.04;28.79
43217;BME280;60511;42.686;23.300;2022-07-23T08:59:16;95009.16;;;29.98;28.91
43217;BME280;60511;42.686;23.300;2022-07-23T09:01:16;95010.72;;;30.02;29.03
43217;BME280;60511;42.686;23.300;2022-07-23T09:03:18;95015.00;;;30.00;29.04
43217;BME280;60511;42.686;23.300;2022-07-23T09:05:19;95008.75;;;29.99;29.00
43217;BME280;60511;42.686;23.300;2022-07-23T09:07:19;95005.63;;;30.01;29.17
43217;BME280;60511;42.686;23.300;2022-07-23T09:09:20;95008.38;;;30.01;28.82
43217;BME280;60511;42.686;23.300;2022-07-23T09:11:20;95011.88;;;30.01;29.11
43217;BME280;60511;42.686;23.300;2022-07-23T09:13:28;95008.75;;;29.99;29.24
43217;BME280;60511;42.686;23.300;2022-07-23T09:15:29;95006.81;;;30.03;28.78
43217;BME280;60511;42.686;23.300;2022-07-23T09:17:29;95011.47;;;29.99;28.87
43217;BME280;60511;42.686;23.300;2022-07-23T09:19:36;95006.81;;;30.00;29.19
43217;BME280;60511;42.686;23.300;2022-07-23T09:21:37;95007.22;;;30.02;28.81
43217;BME280;60511;42.686;23.300;2022-07-23T09:23:41;95009.53;;;30.00;29.16
43217;BME280;60511;42.686;23.300;2022-07-23T09:25:41;95004.84;;;30.00;28.89
43217;BME280;60511;42.686;23.300;2022-07-23T09:27:47;95000.16;;;29.97;29.09
43217;BME280;60511;42.686;23.300;2022-07-23T09:29:55;95006.81;;;30.00;29.03
43217;BME280;60511;42.686;23.300;2022-07-23T09:32:00;94998.63;;;30.00;28.70
43217;BME280;60511;42.686;23.300;2022-07-23T09:34:07;94994.72;;;30.01;29.14
43217;BME280;60511;42.686;23.300;2022-07-23T09:36:07;94997.06;;;30.02;29.21
43217;BME280;60511;42.686;23.300;2022-07-23T09:38:09;94997.84;;;30.03;28.77
43217;BME280;60511;42.686;23.300;2022-07-23T09:40:10;94997.47;;;30.04;28.79
43217;BME280;60511;42.686;23.300;2022-07-23T09:42:17;94992.38;;;30.03;28.72
43217;BME280;60511;42.686;23.300;2022-07-23T09:44:19;94990.44;;;30.07;28.84
43217;BME280;60511;42.686;23.300;2022-07-23T09:46:23;94981.84;;;30.05;28.72
43217;BME280;60511;42.686;23.300;2022-07-23T09:48:24;94989.28;;;30.04;28.50
43217;BME280;60511;42.686;23.300;2022-07-23T09:50:24;94976.00;;;30.07;28.63
43217;BME280;60511;42.686;23.300;2022-07-23T09:52:28;94985.00;;;30.11;28.66
43217;BME280;60511;42.686;23.300;2022-07-23T09:56:33;94980.69;;;30.06;28.84
43217;BME280;60511;42.686;23.300;2022-07-23T09:58:36;94979.13;;;30.05;28.56
43217;BME280;60511;42.686;23.300;2022-07-23T10:00:43;94979.13;;;30.05;28.78
43217;BME280;60511;42.686;23.300;2022-07-23T10:02:46;94976.78;;;30.07;28.65
43217;BME280;60511;42.686;23.300;2022-07-23T10:04:47;94970.19;;;30.08;28.59
43217;BME280;60511;42.686;23.300;2022-07-23T10:06:47;94972.91;;;30.08;28.51
43217;BME280;60511;42.686;23.300;2022-07-23T10:08:50;94964.31;;;30.10;28.10
43217;BME280;60511;42.686;23.300;2022-07-23T10:10:51;94967.81;;;30.07;28.47
43217;BME280;60511;42.686;23.300;2022-07-23T10:12:52;94965.50;;;30.09;28.32
43217;BME280;60511;42.686;23.300;2022-07-23T10:14:58;94970.97;;;30.12;27.99
43217;BME280;60511;42.686;23.300;2022-07-23T10:17:02;94966.28;;;30.13;28.00
43217;BME280;60511;42.686;23.300;2022-07-23T10:19:03;94969.78;;;30.13;27.81
43217;BME280;60511;42.686;23.300;2022-07-23T10:21:07;94963.16;;;30.14;27.84
43217;BME280;60511;42.686;23.300;2022-07-23T10:23:10;94961.59;;;30.13;27.93
43217;BME280;60511;42.686;23.300;2022-07-23T10:29:31;94954.97;;;30.14;27.77
43217;BME280;60511;42.686;23.300;2022-07-23T10:35:57;94949.50;;;30.14;27.11
43217;BME280;60511;42.686;23.300;2022-07-23T10:38:02;94949.91;;;30.16;27.10
43217;BME280;60511;42.686;23.300;2022-07-23T10:40:16;94949.50;;;30.18;26.83
43217;BME280;60511;42.686;23.300;2022-07-23T10:42:17;94944.03;;;30.18;26.77